Time;durP1;ratioP1;P1;durP2;ratioP2;P2;SDS_P1;SDS_P2;PMS_P1;PMS_P2;Temp;Humidity;BMP_temperature;BMP_pressure;BME280_temperature;BME280_humidity;BME280_pressure;Samples;Min_cycle;Max_cycle;Signal;HPM_P1;HPM_P2
2022/02/26 00:01:41;;;;;;;63.22;5.53;;;;;;;;;;5094897;28;20312;-68
2022/02/26 00:04:08;;;;;;;65.47;5.88;;;;;;;;;;5092850;28;20220;-69
2022/02/26 00:06:36;;;;;;;65.35;5.75;;;;;;;;;;5094994;28;20585;-69
2022/02/26 00:09:03;;;;;;;63.67;4.97;;;;;;;;;;5094812;28;20681;-69
2022/02/26 00:11:30;;;;;;;64.28;5.68;;;;;;;;;;5095463;28;20668;-69
2022/02/26 00:13:57;;;;;;;65.40;5.80;;;;;;;;;;5095042;28;20250;-69
2022/02/26 00:16:24;;;;;;;70.60;6.22;;;;;;;;;;5095048;28;20204;-70
2022/02/26 00:18:53;;;;;;;61.38;5.68;;;;;;;;;;5094579;28;20611;-69
2022/02/26 00:21:20;;;;;;;63.30;4.85;;;;;;;;;;5094668;28;20311;-68
2022/02/26 00:23:47;;;;;;;69.03;5.82;;;;;;;;;;5094483;28;20602;-69
2022/02/26 00:26:16;;;;;;;63.30;5.10;;;;;;;;;;5094229;28;20227;-70
2022/02/26 00:28:43;;;;;;;63.42;5.13;;;;;;;;;;5094299;28;20208;-68
2022/02/26 00:31:10;;;;;;;66.50;5.32;;;;;;;;;;5094681;28;20243;-72
2022/02/26 00:33:38;;;;;;;64.82;4.85;;;;;;;;;;5092529;28;20205;-70
2022/02/26 00:36:06;;;;;;;61.75;4.97;;;;;;;;;;5094547;28;20315;-72
2022/02/26 00:38:34;;;;;;;62.00;5.00;;;;;;;;;;5094212;28;20687;-68
2022/02/26 00:41:01;;;;;;;62.10;5.35;;;;;;;;;;5094100;28;20604;-71
2022/02/26 00:43:30;;;;;;;65.60;4.60;;;;;;;;;;5094282;28;20642;-69
2022/02/26 00:45:57;;;;;;;65.85;5.38;;;;;;;;;;5093568;28;20281;-70
2022/02/26 00:49:46;;;;;;;61.67;5.43;;;;;;;;;;5093104;28;20699;-68
2022/02/26 00:51:24;;;;;;;60.40;4.93;;;;;;;;;;5093998;28;20691;-70
2022/02/26 00:53:51;;;;;;;62.15;5.20;;;;;;;;;;5094285;28;20576;-68
2022/02/26 00:56:18;;;;;;;60.70;5.00;;;;;;;;;;5094093;28;20795;-69
2022/02/26 00:58:46;;;;;;;59.78;4.70;;;;;;;;;;5094021;28;20295;-72
2022/02/26 01:01:13;;;;;;;60.90;5.20;;;;;;;;;;5093989;28;20224;-69
2022/02/26 01:03:40;;;;;;;63.70;4.72;;;;;;;;;;5093497;28;20212;-69
2022/02/26 01:06:07;;;;;;;61.65;4.40;;;;;;;;;;5092604;28;20224;-68
2022/02/26 01:08:36;;;;;;;62.58;5.03;;;;;;;;;;5093540;28;20299;-70
2022/02/26 01:11:03;;;;;;;62.10;5.22;;;;;;;;;;5093990;28;20207;-68
2022/02/26 01:13:30;;;;;;;62.22;5.30;;;;;;;;;;5093790;28;20653;-69
2022/02/26 01:15:57;;;;;;;59.90;5.00;;;;;;;;;;5093819;28;20224;-69
2022/02/26 01:18:24;;;;;;;65.50;5.85;;;;;;;;;;5093354;28;20211;-69
2022/02/26 01:20:52;;;;;;;64.78;6.05;;;;;;;;;;5093415;28;20224;-69
2022/02/26 01:23:19;;;;;;;65.28;5.65;;;;;;;;;;5093673;28;20215;-69
2022/02/26 01:25:47;;;;;;;63.10;5.25;;;;;;;;;;5093448;28;20224;-69
2022/02/26 01:28:14;;;;;;;66.03;5.25;;;;;;;;;;5093167;28;20218;-70
2022/02/26 01:30:41;;;;;;;63.70;5.25;;;;;;;;;;5093466;28;20208;-69
2022/02/26 01:33:09;;;;;;;68.30;5.95;;;;;;;;;;5093213;28;20203;-68
2022/02/26 01:35:36;;;;;;;64.30;5.50;;;;;;;;;;5093510;28;20228;-69
2022/02/26 01:38:03;;;;;;;62.55;5.65;;;;;;;;;;5093181;28;20325;-69
2022/02/26 01:40:30;;;;;;;64.93;4.88;;;;;;;;;;5091145;28;20296;-68
2022/02/26 01:42:59;;;;;;;63.50;5.60;;;;;;;;;;5093135;28;20206;-69
2022/02/26 01:45:26;;;;;;;64.03;5.20;;;;;;;;;;5092681;28;20315;-69
2022/02/26 01:47:54;;;;;;;61.10;5.40;;;;;;;;;;5092824;28;20212;-71
2022/02/26 01:50:22;;;;;;;62.50;5.22;;;;;;;;;;5093000;28;20214;-69
2022/02/26 01:52:49;;;;;;;63.28;5.20;;;;;;;;;;5093029;28;20794;-70
2022/02/26 01:55:16;;;;;;;65.00;6.03;;;;;;;;;;5093076;28;20315;-69
2022/02/26 01:57:44;;;;;;;64.95;5.47;;;;;;;;;;5092241;28;20204;-69
2022/02/26 02:00:13;;;;;;;62.70;5.40;;;;;;;;;;5093110;28;20277;-69
2022/02/26 02:02:40;;;;;;;63.25;5.70;;;;;;;;;;5092562;28;20731;-68
2022/02/26 02:05:08;;;;;;;62.97;5.22;;;;;;;;;;5092624;28;20235;-69
2022/02/26 02:07:35;;;;;;;61.53;5.63;;;;;;;;;;5092412;28;20204;-69
2022/02/26 02:10:02;;;;;;;61.70;5.40;;;;;;;;;;5092492;28;20214;-69
2022/02/26 02:12:30;;;;;;;62.58;5.10;;;;;;;;;;5090385;28;20296;-69
2022/02/26 02:14:57;;;;;;;62.10;5.28;;;;;;;;;;5092156;28;20230;-69
2022/02/26 02:17:25;;;;;;;65.97;5.85;;;;;;;;;;5092389;28;20406;-68
2022/02/26 02:19:52;;;;;;;62.97;5.10;;;;;;;;;;5092663;28;20580;-69
2022/02/26 02:22:21;;;;;;;66.25;5.60;;;;;;;;;;5092183;28;20319;-71
2022/02/26 02:24:49;;;;;;;62.45;5.28;;;;;;;;;;5092257;28;20592;-69
2022/02/26 02:27:17;;;;;;;63.00;5.53;;;;;;;;;;5092086;28;20204;-69
2022/02/26 02:29:44;;;;;;;62.38;6.05;;;;;;;;;;5092064;28;20227;-69
2022/02/26 02:32:11;;;;;;;63.13;5.70;;;;;;;;;;5092342;28;20215;-68
2022/02/26 02:34:38;;;;;;;63.75;5.95;;;;;;;;;;5089692;28;20799;-69
2022/02/26 02:37:10;;;;;;;64.93;6.15;;;;;;;;;;5092266;28;20295;-69
2022/02/26 02:39:38;;;;;;;64.80;5.82;;;;;;;;;;5092248;28;20256;-69
2022/02/26 02:42:06;;;;;;;61.35;5.70;;;;;;;;;;5091977;28;20653;-68
2022/02/26 02:44:33;;;;;;;63.85;4.70;;;;;;;;;;5076464;28;20229;-71
2022/02/26 02:47:00;;;;;;;69.88;5.85;;;;;;;;;;5071889;28;20208;-69
2022/02/26 02:49:27;;;;;;;65.75;6.53;;;;;;;;;;5071586;28;20215;-68
2022/02/26 02:51:54;;;;;;;65.78;6.05;;;;;;;;;;5071949;28;20228;-70
2022/02/26 02:54:22;;;;;;;65.05;5.75;;;;;;;;;;5071720;28;20312;-68
2022/02/26 02:56:50;;;;;;;63.97;5.65;;;;;;;;;;5071766;28;20296;-70
2022/02/26 02:59:17;;;;;;;62.38;5.30;;;;;;;;;;5071448;28;20291;-68
2022/02/26 03:01:45;;;;;;;63.75;5.95;;;;;;;;;;5071832;28;20315;-71
2022/02/26 03:04:12;;;;;;;61.90;5.30;;;;;;;;;;5071478;28;20269;-68
2022/02/26 03:06:39;;;;;;;63.20;5.10;;;;;;;;;;5071414;28;20205;-70
2022/02/26 03:09:06;;;;;;;67.75;6.53;;;;;;;;;;5070814;28;20300;-69
2022/02/26 03:11:34;;;;;;;64.35;5.35;;;;;;;;;;5071138;28;20205;-69
2022/02/26 03:14:02;;;;;;;65.70;5.97;;;;;;;;;;5071235;28;20209;-69
2022/02/26 03:16:29;;;;;;;63.25;6.65;;;;;;;;;;5070489;28;20200;-70
2022/02/26 03:18:56;;;;;;;63.85;6.25;;;;;;;;;;5071524;28;20205;-69
2022/02/26 03:21:23;;;;;;;65.97;6.53;;;;;;;;;;5071535;28;20221;-70
2022/02/26 03:23:50;;;;;;;63.40;5.88;;;;;;;;;;5071351;28;20204;-70
2022/02/26 03:26:18;;;;;;;62.35;6.15;;;;;;;;;;5071469;28;20250;-69
2022/02/26 03:28:45;;;;;;;74.60;6.90;;;;;;;;;;5070907;28;20705;-69
2022/02/26 03:31:13;;;;;;;64.65;6.50;;;;;;;;;;5071624;28;20304;-68
2022/02/26 03:33:41;;;;;;;64.72;5.15;;;;;;;;;;5071394;28;20302;-68
2022/02/26 03:36:08;;;;;;;67.85;5.93;;;;;;;;;;5071327;28;20735;-70
2022/02/26 03:38:35;;;;;;;66.75;6.47;;;;;;;;;;5070962;28;20211;-69
2022/02/26 03:41:02;;;;;;;62.50;5.82;;;;;;;;;;5071227;28;20205;-69
2022/02/26 03:43:29;;;;;;;64.57;6.65;;;;;;;;;;5071452;28;20241;-68
2022/02/26 03:45:57;;;;;;;75.15;6.35;;;;;;;;;;5070968;28;20766;-69
2022/02/26 03:48:25;;;;;;;65.05;6.18;;;;;;;;;;5069707;28;20201;-71
2022/02/26 03:50:52;;;;;;;68.55;6.55;;;;;;;;;;5070986;28;20748;-68
2022/02/26 03:53:19;;;;;;;63.15;6.00;;;;;;;;;;5070970;28;20292;-69
2022/02/26 03:55:46;;;;;;;69.30;5.78;;;;;;;;;;5071330;28;20235;-69
2022/02/26 03:58:14;;;;;;;65.72;6.43;;;;;;;;;;5071212;28;20209;-69
2022/02/26 04:00:41;;;;;;;64.53;5.95;;;;;;;;;;5071329;28;20312;-69
2022/02/26 04:03:08;;;;;;;62.42;5.75;;;;;;;;;;5071027;28;20235;-68
2022/02/26 04:05:36;;;;;;;62.60;6.00;;;;;;;;;;5070487;28;20650;-69
2022/02/26 04:08:04;;;;;;;66.38;6.63;;;;;;;;;;5071079;28;20574;-68
2022/02/26 04:10:31;;;;;;;62.20;5.53;;;;;;;;;;5070951;28;20204;-68
2022/02/26 04:12:58;;;;;;;61.30;5.50;;;;;;;;;;5071152;28;20201;-68
2022/02/26 04:15:25;;;;;;;63.17;5.90;;;;;;;;;;5070975;28;20592;-69
2022/02/26 04:17:52;;;;;;;64.63;6.40;;;;;;;;;;5070945;28;20501;-69
2022/02/26 04:20:19;;;;;;;63.85;5.63;;;;;;;;;;5070801;28;20205;-69
2022/02/26 04:22:48;;;;;;;66.88;5.95;;;;;;;;;;5092081;28;20238;-69
2022/02/26 04:25:15;;;;;;;63.13;6.38;;;;;;;;;;5094667;28;20231;-70
2022/02/26 04:27:42;;;;;;;65.88;7.40;;;;;;;;;;5094517;28;20208;-69
2022/02/26 04:30:11;;;;;;;61.60;5.68;;;;;;;;;;5094555;28;20295;-69
2022/02/26 04:32:38;;;;;;;67.15;6.97;;;;;;;;;;5094486;28;20232;-68
2022/02/26 04:35:06;;;;;;;65.55;5.55;;;;;;;;;;5094521;28;20311;-71
2022/02/26 04:37:33;;;;;;;63.85;6.38;;;;;;;;;;5094524;28;20749;-68
2022/02/26 04:40:01;;;;;;;65.22;7.13;;;;;;;;;;5094669;28;20290;-69
2022/02/26 04:42:29;;;;;;;64.93;8.10;;;;;;;;;;5094536;28;20226;-69
2022/02/26 04:44:56;;;;;;;64.47;6.10;;;;;;;;;;5094162;28;20230;-69
2022/02/26 04:47:23;;;;;;;64.85;6.43;;;;;;;;;;5093615;28;20295;-69
2022/02/26 04:49:50;;;;;;;69.10;6.78;;;;;;;;;;5094550;28;20294;-69
2022/02/26 04:52:17;;;;;;;72.53;7.57;;;;;;;;;;5094072;28;20240;-66
2022/02/26 04:54:44;;;;;;;64.38;6.90;;;;;;;;;;5075090;28;20221;-69
2022/02/26 04:57:13;;;;;;;64.78;6.88;;;;;;;;;;5073814;28;20410;-69
2022/02/26 04:59:41;;;;;;;68.55;5.90;;;;;;;;;;5073876;28;20247;-70
2022/02/26 05:02:08;;;;;;;65.15;5.90;;;;;;;;;;5074035;28;20248;-71
2022/02/26 05:04:35;;;;;;;68.15;6.75;;;;;;;;;;5073767;28;20256;-69
2022/02/26 05:07:02;;;;;;;65.10;7.85;;;;;;;;;;5073410;28;20205;-72
2022/02/26 05:09:29;;;;;;;65.82;7.15;;;;;;;;;;5073489;28;20295;-69
2022/02/26 05:11:56;;;;;;;65.85;6.50;;;;;;;;;;5073393;28;20212;-70
2022/02/26 05:14:25;;;;;;;65.70;6.75;;;;;;;;;;5073302;28;20311;-70
2022/02/26 05:16:52;;;;;;;65.47;6.70;;;;;;;;;;5073666;28;20211;-70
2022/02/26 05:19:19;;;;;;;66.00;6.93;;;;;;;;;;5073385;28;20211;-70
2022/02/26 05:21:46;;;;;;;68.93;7.18;;;;;;;;;;5073318;28;20231;-72
2022/02/26 05:24:14;;;;;;;68.38;8.02;;;;;;;;;;5072373;28;20296;-71
2022/02/26 05:26:41;;;;;;;75.65;7.53;;;;;;;;;;5086136;28;20200;-71
2022/02/26 05:29:08;;;;;;;65.95;7.80;;;;;;;;;;5092761;28;20304;-70
2022/02/26 05:31:37;;;;;;;66.47;7.60;;;;;;;;;;5093515;28;20311;-70
2022/02/26 05:34:04;;;;;;;64.85;7.53;;;;;;;;;;5092702;28;20295;-69
2022/02/26 05:36:31;;;;;;;63.58;6.90;;;;;;;;;;5093614;28;20208;-70
2022/02/26 05:38:59;;;;;;;64.22;6.88;;;;;;;;;;5093355;28;20215;-69
2022/02/26 05:41:26;;;;;;;65.75;7.45;;;;;;;;;;5093240;28;20242;-70
2022/02/26 05:43:53;;;;;;;66.63;7.80;;;;;;;;;;5093131;28;20250;-70
2022/02/26 05:46:20;;;;;;;64.88;7.30;;;;;;;;;;5092812;28;20224;-69
2022/02/26 05:48:49;;;;;;;63.60;7.15;;;;;;;;;;5092931;28;20211;-69
2022/02/26 05:51:16;;;;;;;66.72;8.20;;;;;;;;;;5093014;28;20204;-69
2022/02/26 05:53:43;;;;;;;66.18;7.43;;;;;;;;;;5093121;28;20207;-71
2022/02/26 05:56:11;;;;;;;66.40;7.95;;;;;;;;;;5091630;28;20220;-74
2022/02/26 05:58:38;;;;;;;68.28;8.18;;;;;;;;;;5072026;28;20295;-69
2022/02/26 06:01:05;;;;;;;67.80;8.10;;;;;;;;;;5072894;28;20201;-69
2022/02/26 06:03:32;;;;;;;68.40;7.15;;;;;;;;;;5072688;28;20225;-69
2022/02/26 06:06:01;;;;;;;66.72;7.78;;;;;;;;;;5086418;28;20303;-69
2022/02/26 06:08:28;;;;;;;68.57;7.80;;;;;;;;;;5092214;28;20204;-70
2022/02/26 06:10:55;;;;;;;66.78;7.78;;;;;;;;;;5092578;28;20243;-69
2022/02/26 06:13:22;;;;;;;69.53;8.50;;;;;;;;;;5092731;28;20200;-70
2022/02/26 06:15:50;;;;;;;66.00;9.80;;;;;;;;;;5092862;28;20670;-68
2022/02/26 06:18:17;;;;;;;66.70;8.77;;;;;;;;;;5092468;28;20204;-68
2022/02/26 06:20:44;;;;;;;67.03;8.43;;;;;;;;;;5093159;28;20232;-70
2022/02/26 06:23:12;;;;;;;62.90;7.32;;;;;;;;;;5092283;28;20327;-69
2022/02/26 06:25:40;;;;;;;75.10;9.65;;;;;;;;;;5092224;28;20508;-68
2022/02/26 06:28:07;;;;;;;70.65;10.60;;;;;;;;;;5089483;28;20302;-73
2022/02/26 06:30:34;;;;;;;73.82;11.88;;;;;;;;;;5092677;28;20497;-68
2022/02/26 06:33:01;;;;;;;72.68;11.80;;;;;;;;;;5092150;28;20206;-68
2022/02/26 06:35:28;;;;;;;67.78;9.95;;;;;;;;;;5092276;28;20246;-71
2022/02/26 06:37:55;;;;;;;71.45;10.00;;;;;;;;;;5091955;28;20208;-68
2022/02/26 06:40:24;;;;;;;72.03;8.23;;;;;;;;;;5092282;28;20204;-69
2022/02/26 06:42:51;;;;;;;71.32;9.00;;;;;;;;;;5092348;28;20224;-68
2022/02/26 06:45:18;;;;;;;66.32;8.40;;;;;;;;;;5092224;28;20319;-71
2022/02/26 06:47:46;;;;;;;71.25;8.90;;;;;;;;;;5091553;28;20572;-68
2022/02/26 06:50:13;;;;;;;66.53;7.63;;;;;;;;;;5091708;28;20204;-70
2022/02/26 06:52:40;;;;;;;69.25;7.95;;;;;;;;;;5091968;28;20232;-69
2022/02/26 06:55:07;;;;;;;67.85;7.88;;;;;;;;;;5092176;28;20237;-69
2022/02/26 06:57:36;;;;;;;65.10;7.57;;;;;;;;;;5091797;28;20259;-69
2022/02/26 07:00:03;;;;;;;68.68;8.73;;;;;;;;;;5090284;28;20290;-70
2022/02/26 07:02:30;;;;;;;68.03;8.90;;;;;;;;;;5091789;28;20215;-68
2022/02/26 07:04:57;;;;;;;75.82;13.68;;;;;;;;;;5091723;28;20224;-69
2022/02/26 07:07:25;;;;;;;73.35;9.80;;;;;;;;;;5091207;28;20307;-69
2022/02/26 07:09:52;;;;;;;67.47;8.27;;;;;;;;;;5091663;28;20204;-68
2022/02/26 07:12:19;;;;;;;67.30;8.57;;;;;;;;;;5091615;28;20676;-68
2022/02/26 07:14:48;;;;;;;66.90;8.60;;;;;;;;;;5091800;28;20234;-69
2022/02/26 07:17:15;;;;;;;69.35;7.68;;;;;;;;;;5091470;28;20212;-71
2022/02/26 07:19:42;;;;;;;65.60;7.40;;;;;;;;;;5092065;28;20229;-69
2022/02/26 07:22:10;;;;;;;71.05;9.35;;;;;;;;;;5091923;28;20206;-69
2022/02/26 07:24:37;;;;;;;65.28;8.48;;;;;;;;;;5091815;28;20220;-69
2022/02/26 07:27:04;;;;;;;67.10;7.55;;;;;;;;;;5091562;28;20842;-69
2022/02/26 07:29:32;;;;;;;72.10;7.80;;;;;;;;;;5091224;28;20680;-71
2022/02/26 07:32:00;;;;;;;69.00;7.68;;;;;;;;;;5088966;28;20207;-69
2022/02/26 07:34:27;;;;;;;75.28;10.02;;;;;;;;;;5091663;28;20708;-68
2022/02/26 07:36:54;;;;;;;66.50;7.82;;;;;;;;;;5091966;28;20627;-69
2022/02/26 07:39:21;;;;;;;68.20;8.60;;;;;;;;;;5091463;28;20748;-68
2022/02/26 07:41:49;;;;;;;72.18;8.38;;;;;;;;;;5091672;28;20295;-69
2022/02/26 07:44:16;;;;;;;66.22;7.97;;;;;;;;;;5091330;28;20314;-69
2022/02/26 07:46:43;;;;;;;65.65;7.82;;;;;;;;;;5091664;28;20204;-70
2022/02/26 07:49:11;;;;;;;65.28;7.60;;;;;;;;;;5091249;28;20219;-69
2022/02/26 07:51:39;;;;;;;68.57;8.27;;;;;;;;;;5091673;28;20208;-68
2022/02/26 07:54:06;;;;;;;69.10;8.18;;;;;;;;;;5091071;28;20208;-69
2022/02/26 07:56:33;;;;;;;71.45;9.30;;;;;;;;;;5093141;28;20207;-68
2022/02/26 07:59:00;;;;;;;69.15;7.75;;;;;;;;;;5095029;28;20208;-69
2022/02/26 08:01:27;;;;;;;66.30;8.10;;;;;;;;;;5095338;28;20211;-68
2022/02/26 08:03:54;;;;;;;72.15;9.63;;;;;;;;;;5084638;28;20232;-68
2022/02/26 08:06:23;;;;;;;73.38;9.27;;;;;;;;;;5075046;28;20233;-69
2022/02/26 08:08:50;;;;;;;67.63;8.57;;;;;;;;;;5074193;28;20605;-69
2022/02/26 08:11:17;;;;;;;67.95;9.02;;;;;;;;;;5074664;28;20243;-70
2022/02/26 08:13:44;;;;;;;69.72;9.10;;;;;;;;;;5074085;28;20292;-68
2022/02/26 08:16:11;;;;;;;69.50;8.45;;;;;;;;;;5074540;28;20286;-69
2022/02/26 08:18:39;;;;;;;66.95;8.40;;;;;;;;;;5074547;28;20288;-69
2022/02/26 08:21:06;;;;;;;69.93;9.90;;;;;;;;;;5074926;28;20205;-69
2022/02/26 08:23:34;;;;;;;67.00;9.48;;;;;;;;;;5074221;28;20316;-69
2022/02/26 08:26:01;;;;;;;72.57;8.25;;;;;;;;;;5074345;28;20225;-71
2022/02/26 08:28:28;;;;;;;69.60;8.73;;;;;;;;;;5073726;28;20671;-68
2022/02/26 08:30:55;;;;;;;71.85;9.35;;;;;;;;;;5075063;28;20256;-69
2022/02/26 08:33:23;;;;;;;69.80;9.40;;;;;;;;;;5073927;28;20202;-69
2022/02/26 08:35:50;;;;;;;67.82;8.85;;;;;;;;;;5088359;28;20317;-69
2022/02/26 08:38:17;;;;;;;70.53;9.32;;;;;;;;;;5094333;28;20297;-69
2022/02/26 08:40:45;;;;;;;67.50;9.30;;;;;;;;;;5094429;28;20210;-69
2022/02/26 08:43:13;;;;;;;71.63;9.85;;;;;;;;;;5094520;28;20236;-69
2022/02/26 08:45:42;;;;;;;69.95;8.75;;;;;;;;;;5094389;28;20315;-72
2022/02/26 08:48:09;;;;;;;71.35;9.43;;;;;;;;;;5094097;28;20299;-71
2022/02/26 08:50:36;;;;;;;67.73;9.00;;;;;;;;;;5094065;28;20289;-71
2022/02/26 08:53:04;;;;;;;69.77;8.67;;;;;;;;;;5094183;28;20531;-69
2022/02/26 08:55:32;;;;;;;64.83;8.07;;;;;;;;;;5093915;28;20552;-69
2022/02/26 08:58:00;;;;;;;69.80;9.43;;;;;;;;;;5094238;28;20484;-70
2022/02/26 09:00:28;;;;;;;66.77;7.97;;;;;;;;;;5094256;28;20455;-69
2022/02/26 09:02:55;;;;;;;68.33;9.53;;;;;;;;;;5093903;28;20457;-69
2022/02/26 09:05:23;;;;;;;67.50;9.03;;;;;;;;;;5090193;28;20552;-69
2022/02/26 09:07:50;;;;;;;73.93;11.00;;;;;;;;;;5072063;28;20456;-70
2022/02/26 09:10:17;;;;;;;68.93;8.37;;;;;;;;;;5073517;28;20468;-69
2022/02/26 09:12:45;;;;;;;69.07;8.83;;;;;;;;;;5073667;28;20477;-71
2022/02/26 09:15:13;;;;;;;68.27;9.60;;;;;;;;;;5073764;28;20627;-69
2022/02/26 09:17:40;;;;;;;72.80;8.57;;;;;;;;;;5073413;28;20770;-69
2022/02/26 09:20:10;;;;;;;70.00;8.10;;;;;;;;;;5073522;28;20485;-70
2022/02/26 09:22:37;;;;;;;71.00;9.47;;;;;;;;;;5073589;28;20484;-71
2022/02/26 09:25:04;;;;;;;66.00;8.13;;;;;;;;;;5073068;28;20486;-69
2022/02/26 09:27:32;;;;;;;69.60;7.90;;;;;;;;;;5073319;28;20480;-69
2022/02/26 09:29:59;;;;;;;69.40;7.93;;;;;;;;;;5072769;28;20466;-69
2022/02/26 09:32:31;;;;;;;70.90;8.30;;;;;;;;;;5072770;28;20488;-69
2022/02/26 09:34:58;;;;;;;73.70;8.87;;;;;;;;;;5072569;28;20470;-69
2022/02/26 09:37:25;;;;;;;66.60;7.87;;;;;;;;;;5079701;28;20826;-69
2022/02/26 09:39:54;;;;;;;68.33;9.00;;;;;;;;;;5093451;28;20832;-69
2022/02/26 09:42:23;;;;;;;68.47;7.67;;;;;;;;;;5093276;28;21014;-69
2022/02/26 09:44:50;;;;;;;64.00;7.77;;;;;;;;;;5092863;28;20484;-70
2022/02/26 09:47:17;;;;;;;65.50;7.67;;;;;;;;;;5092849;28;20551;-69
2022/02/26 09:49:46;;;;;;;67.73;8.20;;;;;;;;;;5092881;28;20452;-69
2022/02/26 09:52:13;;;;;;;66.83;7.27;;;;;;;;;;5093032;28;20445;-69
2022/02/26 09:54:40;;;;;;;70.23;8.00;;;;;;;;;;5093004;28;20550;-69
2022/02/26 09:57:07;;;;;;;67.80;7.30;;;;;;;;;;5092879;28;20530;-70
2022/02/26 09:59:34;;;;;;;63.00;5.90;;;;;;;;;;5092854;28;20447;-69
2022/02/26 10:02:02;;;;;;;63.60;5.13;;;;;;;;;;5092853;28;20546;-69
2022/02/26 10:04:30;;;;;;;68.73;6.70;;;;;;;;;;5092740;28;20491;-69
2022/02/26 10:07:12;;;;;;;64.00;6.63;;;;;;;;;;5092751;28;20536;-69
2022/02/26 10:09:41;;;;;;;61.90;5.87;;;;;;;;;;5087866;28;20452;-70
2022/02/26 10:12:22;;;;;;;68.40;5.27;;;;;;;;;;5092424;28;20894;-70
2022/02/26 10:14:50;;;;;;;78.43;7.50;;;;;;;;;;5092896;28;20463;-70
2022/02/26 10:17:25;;;;;;;69.40;6.73;;;;;;;;;;5092390;28;20493;-69
2022/02/26 10:20:00;;;;;;;63.50;6.30;;;;;;;;;;5092499;28;21001;-69
2022/02/26 10:22:29;;;;;;;62.03;5.40;;;;;;;;;;5092619;28;20444;-69
2022/02/26 10:25:04;;;;;;;60.00;4.70;;;;;;;;;;5091932;28;20483;-71
2022/02/26 10:27:31;;;;;;;62.50;4.37;;;;;;;;;;5092362;28;20451;-69
2022/02/26 10:29:59;;;;;;;66.00;5.17;;;;;;;;;;5092365;28;20459;-69
2022/02/26 10:32:26;;;;;;;64.83;6.23;;;;;;;;;;5092176;28;20451;-69
2022/02/26 10:34:55;;;;;;;63.87;5.07;;;;;;;;;;5092782;28;20464;-72
2022/02/26 10:37:23;;;;;;;67.93;5.30;;;;;;;;;;5091717;28;20456;-72
2022/02/26 10:39:51;;;;;;;62.67;4.90;;;;;;;;;;5081452;28;20449;-72
2022/02/26 10:42:21;;;;;;;71.70;6.00;;;;;;;;;;5071659;28;20950;-72
2022/02/26 10:45:00;;;;;;;62.30;4.80;;;;;;;;;;5071359;28;20494;-72
2022/02/26 10:47:29;;;;;;;61.10;4.10;;;;;;;;;;5071465;28;20464;-72
2022/02/26 10:49:56;;;;;;;59.47;3.93;;;;;;;;;;5071648;28;20458;-72
2022/02/26 10:52:23;;;;;;;62.60;4.40;;;;;;;;;;5071318;28;20456;-70
2022/02/26 10:54:52;;;;;;;64.10;4.27;;;;;;;;;;5071986;28;20459;-70
2022/02/26 10:57:20;;;;;;;60.60;4.00;;;;;;;;;;5071529;28;20848;-69
2022/02/26 10:59:53;;;;;;;64.07;4.07;;;;;;;;;;5072258;28;20551;-70
2022/02/26 11:02:23;;;;;;;61.37;3.70;;;;;;;;;;5071589;28;20450;-69
2022/02/26 11:04:51;;;;;;;63.80;4.43;;;;;;;;;;5071862;28;20817;-68
2022/02/26 11:07:18;;;;;;;65.37;5.10;;;;;;;;;;5071316;28;20456;-68
2022/02/26 11:09:47;;;;;;;64.57;4.60;;;;;;;;;;5071857;28;20446;-68
2022/02/26 11:12:15;;;;;;;64.23;3.87;;;;;;;;;;5086144;28;20455;-69
2022/02/26 11:14:47;;;;;;;61.53;3.90;;;;;;;;;;5091706;28;20997;-68
2022/02/26 11:17:14;;;;;;;61.90;3.77;;;;;;;;;;5091723;28;20541;-70
2022/02/26 11:19:44;;;;;;;62.83;4.13;;;;;;;;;;5091969;28;20450;-68
2022/02/26 11:22:11;;;;;;;64.33;4.83;;;;;;;;;;5091986;28;20442;-69
2022/02/26 11:24:39;;;;;;;63.60;3.90;;;;;;;;;;5091879;28;20500;-69
2022/02/26 11:27:06;;;;;;;62.33;4.43;;;;;;;;;;5091615;28;20549;-68
2022/02/26 11:29:33;;;;;;;61.80;4.20;;;;;;;;;;5091416;28;20456;-68
2022/02/26 11:32:05;;;;;;;60.50;3.70;;;;;;;;;;5094277;28;20524;-66
2022/02/26 11:34:34;;;;;;;64.23;4.10;;;;;;;;;;5095753;28;20473;-69
2022/02/26 11:37:04;;;;;;;65.50;6.07;;;;;;;;;;5095634;28;20954;-68
2022/02/26 11:39:32;;;;;;;60.67;4.43;;;;;;;;;;5095865;28;20528;-68
2022/02/26 11:42:18;;;;;;;66.50;4.27;;;;;;;;;;5093423;28;20842;-68
2022/02/26 11:44:46;;;;;;;61.57;3.73;;;;;;;;;;5095735;28;20583;-70
2022/02/26 11:47:16;;;;;;;61.60;3.63;;;;;;;;;;5095208;28;20546;-69
2022/02/26 11:49:55;;;;;;;62.60;3.53;;;;;;;;;;5095662;28;20823;-69
2022/02/26 11:52:37;;;;;;;64.37;3.83;;;;;;;;;;5094891;28;20817;-72
2022/02/26 11:55:04;;;;;;;59.57;3.53;;;;;;;;;;5095271;28;20461;-70
2022/02/26 11:57:31;;;;;;;62.80;3.20;;;;;;;;;;5094884;28;20532;-70
2022/02/26 12:00:10;;;;;;;65.27;3.90;;;;;;;;;;5095148;28;20446;-70
2022/02/26 12:02:39;;;;;;;61.93;3.40;;;;;;;;;;5095077;28;20454;-69
2022/02/26 12:05:07;;;;;;;61.60;3.70;;;;;;;;;;5094900;28;20512;-70
2022/02/26 12:07:38;;;;;;;60.53;3.40;;;;;;;;;;5094880;28;20868;-69
2022/02/26 12:10:06;;;;;;;61.40;3.90;;;;;;;;;;5095352;28;20855;-69
2022/02/26 12:12:35;;;;;;;59.80;4.17;;;;;;;;;;5094794;28;20524;-70
2022/02/26 12:15:02;;;;;;;62.33;3.23;;;;;;;;;;5093085;28;20982;-69
2022/02/26 12:17:29;;;;;;;61.90;3.40;;;;;;;;;;5094386;28;20442;-69
2022/02/26 12:19:58;;;;;;;65.77;3.97;;;;;;;;;;5094995;28;20525;-70
2022/02/26 12:22:34;;;;;;;67.00;4.20;;;;;;;;;;5095168;28;20464;-69
2022/02/26 12:25:11;;;;;;;64.03;4.17;;;;;;;;;;5094921;28;20486;-69
2022/02/26 12:27:38;;;;;;;66.47;4.27;;;;;;;;;;5094012;28;20456;-72
2022/02/26 12:30:09;;;;;;;59.90;4.13;;;;;;;;;;5094555;28;20462;-69
2022/02/26 12:32:50;;;;;;;65.53;6.10;;;;;;;;;;5094426;28;21007;-71
2022/02/26 12:35:19;;;;;;;61.60;3.70;;;;;;;;;;5094498;28;20550;-70
2022/02/26 12:37:47;;;;;;;60.60;3.93;;;;;;;;;;5094413;28;20459;-70
2022/02/26 12:40:15;;;;;;;63.23;4.10;;;;;;;;;;5094376;28;20544;-70
2022/02/26 12:42:43;;;;;;;65.00;4.30;;;;;;;;;;5094651;28;20447;-72
2022/02/26 12:45:11;;;;;;;60.97;4.43;;;;;;;;;;5081856;28;20492;-72
2022/02/26 12:47:38;;;;;;;61.80;3.53;;;;;;;;;;5073599;28;20459;-72
2022/02/26 12:50:06;;;;;;;62.70;4.27;;;;;;;;;;5074184;28;20449;-69
2022/02/26 12:52:38;;;;;;;65.67;3.30;;;;;;;;;;5073947;28;20454;-69
2022/02/26 12:55:06;;;;;;;66.03;4.67;;;;;;;;;;5073518;28;20481;-70
2022/02/26 12:57:37;;;;;;;60.80;3.33;;;;;;;;;;5073600;28;20458;-70
2022/02/26 13:00:07;;;;;;;62.00;3.97;;;;;;;;;;5073887;28;20454;-69
2022/02/26 13:02:38;;;;;;;63.87;3.80;;;;;;;;;;5074191;28;20860;-69
2022/02/26 13:05:06;;;;;;;62.00;3.60;;;;;;;;;;5074206;28;20490;-70
2022/02/26 13:10:39;;;;;;;64.07;3.70;;;;;;;;;;5078839;28;20553;-69
2022/02/26 13:13:07;;;;;;;64.20;3.53;;;;;;;;;;5093817;28;20448;-69
2022/02/26 13:15:35;;;;;;;62.47;3.40;;;;;;;;;;5091795;28;20469;-69
2022/02/26 13:18:02;;;;;;;61.77;3.40;;;;;;;;;;5093569;28;20453;-69
2022/02/26 13:20:29;;;;;;;62.37;3.80;;;;;;;;;;5093694;28;20833;-72
2022/02/26 13:22:57;;;;;;;58.87;3.00;;;;;;;;;;5094011;28;20458;-69
2022/02/26 13:25:25;;;;;;;61.53;3.47;;;;;;;;;;5093780;28;20478;-69
2022/02/26 13:27:53;;;;;;;61.20;4.70;;;;;;;;;;5092916;28;20543;-69
2022/02/26 13:30:21;;;;;;;64.77;3.97;;;;;;;;;;5093300;28;20552;-70
2022/02/26 13:32:49;;;;;;;58.27;3.10;;;;;;;;;;5092896;28;20830;-71
2022/02/26 13:35:17;;;;;;;62.23;3.53;;;;;;;;;;5093170;28;20458;-69
2022/02/26 13:37:45;;;;;;;59.00;3.00;;;;;;;;;;5093085;28;20446;-70
2022/02/26 13:40:13;;;;;;;61.27;3.37;;;;;;;;;;5093189;28;20539;-69
2022/02/26 13:42:41;;;;;;;61.20;3.20;;;;;;;;;;5093288;28;20534;-70
2022/02/26 13:45:11;;;;;;;61.70;3.10;;;;;;;;;;5093222;28;20488;-69
2022/02/26 13:47:39;;;;;;;62.97;3.53;;;;;;;;;;5092752;28;20457;-70
2022/02/26 13:50:08;;;;;;;61.13;3.20;;;;;;;;;;5093450;28;20444;-68
2022/02/26 13:52:37;;;;;;;60.27;3.27;;;;;;;;;;5093349;28;20585;-70
2022/02/26 13:55:05;;;;;;;62.17;3.37;;;;;;;;;;5092089;28;20577;-70
2022/02/26 13:57:33;;;;;;;58.37;3.10;;;;;;;;;;5093039;28;20449;-70
2022/02/26 14:00:06;;;;;;;60.60;3.50;;;;;;;;;;5092784;28;20533;-70
2022/02/26 14:02:34;;;;;;;63.27;3.40;;;;;;;;;;5093068;28;20533;-69
2022/02/26 14:05:03;;;;;;;64.13;3.43;;;;;;;;;;5093007;28;20488;-67
2022/02/26 14:07:33;;;;;;;61.07;3.33;;;;;;;;;;5092643;28;20449;-69
2022/02/26 14:10:01;;;;;;;60.33;3.57;;;;;;;;;;5092806;28;20448;-69
2022/02/26 14:12:29;;;;;;;62.07;3.87;;;;;;;;;;5092793;28;20467;-69
2022/02/26 14:14:57;;;;;;;59.90;3.17;;;;;;;;;;5092527;28;20494;-70
2022/02/26 14:17:28;;;;;;;62.43;4.10;;;;;;;;;;5093044;28;20449;-69
2022/02/26 14:19:59;;;;;;;62.97;3.57;;;;;;;;;;5092522;28;20446;-71
2022/02/26 14:22:28;;;;;;;62.80;3.40;;;;;;;;;;5092798;28;20444;-70
2022/02/26 14:24:55;;;;;;;60.87;3.30;;;;;;;;;;5090649;28;20503;-71
2022/02/26 14:27:23;;;;;;;59.73;3.40;;;;;;;;;;5092574;28;20524;-69
2022/02/26 14:29:50;;;;;;;63.30;3.43;;;;;;;;;;5090175;28;20859;-69
2022/02/26 14:32:18;;;;;;;59.27;3.43;;;;;;;;;;5091462;28;20445;-70
2022/02/26 14:34:45;;;;;;;59.07;3.47;;;;;;;;;;5091921;28;20462;-71
2022/02/26 14:37:14;;;;;;;60.47;3.17;;;;;;;;;;5091903;28;20453;-70